Time;durP1;ratioP1;P1;durP2;ratioP2;P2;SDS_P1;SDS_P2;PMS_P1;PMS_P2;Temp;Humidity;BMP_temperature;BMP_pressure;BME280_temperature;BME280_humidity;BME280_pressure;Samples;Min_cycle;Max_cycle;Signal;HPM_P1;HPM_P2
2021/12/11 00:02:32;;;;;;;35.85;20.95;;;;;;;2.54;100.00;99104.88;5094240;28;20086;-51
2021/12/11 00:05:01;;;;;;;34.72;20.38;;;;;;;2.53;100.00;99108.41;5092112;28;20051;-52
2021/12/11 00:07:30;;;;;;;37.42;21.70;;;;;;;2.53;100.00;99108.41;5096678;28;20062;-52
2021/12/11 00:10:26;;;;;;;32.08;19.95;;;;;;;2.44;100.00;99099.97;5094830;28;20052;-52
2021/12/11 00:13:07;;;;;;;34.08;20.35;;;;;;;2.58;100.00;99132.63;5095783;28;20075;-53
2021/12/11 00:15:39;;;;;;;36.42;21.27;;;;;;;2.58;100.00;99133.47;5087653;28;20059;-53
2021/12/11 00:18:28;;;;;;;37.25;22.05;;;;;;;2.63;100.00;99141.16;5089889;28;20059;-51
2021/12/11 00:21:23;;;;;;;35.55;21.00;;;;;;;2.64;100.00;99135.03;5091514;28;20052;-53
2021/12/11 00:24:11;;;;;;;35.20;20.52;;;;;;;2.63;100.00;99147.25;5100166;28;20043;-53
2021/12/11 00:26:59;;;;;;;35.05;19.67;;;;;;;2.63;100.00;99147.25;5086799;28;20060;-53
2021/12/11 00:29:32;;;;;;;33.83;21.02;;;;;;;2.63;100.00;99162.94;5094222;28;20101;-53
2021/12/11 00:32:25;;;;;;;34.83;19.75;;;;;;;2.53;100.00;99148.44;5097951;28;20048;-53
2021/12/11 00:35:05;;;;;;;37.35;22.42;;;;;;;2.68;100.00;99171.44;5091832;28;20074;-53
2021/12/11 00:37:33;;;;;;;37.65;22.05;;;;;;;2.69;100.00;99173.16;5096367;28;20043;-53
2021/12/11 00:40:18;;;;;;;41.35;22.80;;;;;;;2.69;100.00;99181.00;5093437;28;20090;-53
2021/12/11 00:43:03;;;;;;;42.30;24.15;;;;;;;2.70;100.00;99195.75;5097535;28;20051;-51
2021/12/11 00:45:37;;;;;;;44.78;23.83;;;;;;;2.70;100.00;99195.75;5097743;28;20431;-53
2021/12/11 00:48:12;;;;;;;40.47;23.58;;;;;;;2.69;100.00;99204.50;5089257;28;20134;-53
2021/12/11 00:51:00;;;;;;;42.58;25.00;;;;;;;2.64;100.00;99202.97;5094803;28;20035;-53
2021/12/11 00:53:36;;;;;;;43.65;24.73;;;;;;;2.60;100.00;99212.69;5093566;28;20043;-52
2021/12/11 00:56:20;;;;;;;46.20;25.33;;;;;;;2.63;100.00;99214.34;5094466;28;20408;-52
2021/12/11 00:58:51;;;;;;;44.42;25.52;;;;;;;2.66;100.00;99222.94;5093367;28;20052;-52
2021/12/11 01:01:26;;;;;;;41.67;24.02;;;;;;;2.66;100.00;99230.78;5097455;28;20047;-52
2021/12/11 01:04:19;;;;;;;43.83;25.35;;;;;;;2.64;100.00;99237.81;5089902;28;20043;-53
2021/12/11 01:07:20;;;;;;;38.92;22.60;;;;;;;2.60;100.00;99240.56;5090827;28;20074;-52
2021/12/11 01:09:56;;;;;;;35.45;21.00;;;;;;;2.67;100.00;99249.94;5096993;28;20142;-56
2021/12/11 01:13:00;;;;;;;31.63;19.15;;;;;;;2.71;99.87;99254.13;5093563;28;20047;-53
2021/12/11 01:15:31;;;;;;;36.80;21.33;;;;;;;2.76;99.75;99258.31;5095953;28;20047;-54
2021/12/11 01:21:13;;;;;;;38.95;22.95;;;;;;;2.74;99.29;99274.94;5094704;28;20065;-54
2021/12/11 01:24:07;;;;;;;40.20;23.05;;;;;;;2.76;99.60;99283.59;5099957;28;20043;-53
2021/12/11 01:26:54;;;;;;;43.17;24.38;;;;;;;2.75;100.00;99290.59;5069800;28;20067;-53
2021/12/11 01:29:24;;;;;;;41.35;24.08;;;;;;;2.77;100.00;99293.16;5078630;28;20055;-52
2021/12/11 01:31:56;;;;;;;41.13;23.90;;;;;;;2.79;100.00;99299.19;5076076;28;20063;-53
2021/12/11 01:34:30;;;;;;;39.35;23.15;;;;;;;2.79;100.00;99305.28;5077775;28;20382;-52
2021/12/11 01:37:00;;;;;;;41.00;23.30;;;;;;;2.78;100.00;99310.53;5073172;28;20052;-52
2021/12/11 01:39:38;;;;;;;41.10;23.65;;;;;;;2.78;100.00;99321.84;5075234;28;20041;-52
2021/12/11 01:42:15;;;;;;;37.85;22.48;;;;;;;2.78;100.00;99319.25;5078056;28;20050;-53
2021/12/11 01:44:54;;;;;;;37.53;21.67;;;;;;;2.79;100.00;99336.63;5071149;28;20501;-52
2021/12/11 01:47:31;;;;;;;38.97;22.40;;;;;;;2.83;100.00;99340.03;5071485;28;20050;-52
2021/12/11 01:50:10;;;;;;;36.60;21.42;;;;;;;2.88;99.74;99345.06;5070946;28;20044;-51
2021/12/11 01:52:57;;;;;;;31.88;18.95;;;;;;;2.90;99.54;99343.28;5077078;28;20086;-51
2021/12/11 01:55:40;;;;;;;33.70;19.98;;;;;;;2.91;99.24;99353.69;5072194;28;20439;-57
2021/12/11 01:58:50;;;;;;;33.83;19.15;;;;;;;2.91;99.17;99356.28;5072302;28;20040;-54
2021/12/11 02:01:30;;;;;;;33.55;19.98;;;;;;;2.90;98.94;99365.03;5031947;28;20063;-52
2021/12/11 02:04:01;;;;;;;29.98;19.17;;;;;;;2.88;99.57;99361.63;5075279;28;20057;-52
2021/12/11 02:06:30;;;;;;;34.03;20.48;;;;;;;2.89;99.69;99384.25;5073436;28;20050;-53
2021/12/11 02:09:19;;;;;;;27.15;18.13;;;;;;;2.90;99.53;99383.34;5074541;28;20524;-52
2021/12/11 02:11:55;;;;;;;20.45;14.02;;;;;;;2.94;99.03;99390.19;5072489;28;20044;-62
2021/12/11 02:14:27;;;;;;;27.42;17.10;;;;;;;2.94;98.00;99392.81;5079781;28;21117;-53
2021/12/11 02:16:55;;;;;;;33.00;20.25;;;;;;;2.97;97.47;99400.56;5071518;28;20055;-54
2021/12/11 02:19:31;;;;;;;33.17;19.33;;;;;;;3.00;97.56;99412.66;5074440;28;20051;-52
2021/12/11 02:22:17;;;;;;;28.83;18.35;;;;;;;2.95;97.14;99420.69;5074122;28;20071;-53
2021/12/11 02:24:59;;;;;;;29.70;18.42;;;;;;;2.95;97.31;99411.97;5071105;28;20071;-53
2021/12/11 02:27:33;;;;;;;29.65;18.17;;;;;;;2.93;96.89;99425.09;5070140;28;20056;-53
2021/12/11 02:30:23;;;;;;;27.60;17.55;;;;;;;2.92;97.30;99426.00;5072390;28;20514;-52
2021/12/11 02:33:19;;;;;;;25.48;15.65;;;;;;;2.92;97.20;99433.84;5077235;28;20060;-53
2021/12/11 02:36:32;;;;;;;24.45;16.52;;;;;;;2.92;96.64;99431.22;5078003;28;20424;-52
2021/12/11 02:39:13;;;;;;;31.30;18.25;;;;;;;2.96;96.54;99438.09;5070557;28;20052;-53
2021/12/11 02:42:00;;;;;;;;;;;;;;;2.98;96.21;99441.50;5077856;28;20143;-53
2021/12/11 02:44:45;;;;;;;31.65;18.13;;;;;;;2.89;96.74;99427.84;5078662;28;20014;-53
2021/12/11 02:47:16;;;;;;;29.48;17.08;;;;;;;3.02;96.69;99453.56;5074156;28;20048;-52
2021/12/11 02:50:38;;;;;;;29.38;18.50;;;;;;;3.03;96.52;99457.88;5075608;28;20142;-51
2021/12/11 02:53:17;;;;;;;30.50;18.08;;;;;;;3.06;96.22;99465.66;5074724;28;20564;-53
2021/12/11 02:56:14;;;;;;;30.60;19.65;;;;;;;3.07;96.95;99469.97;5078638;28;20125;-52
2021/12/11 02:58:50;;;;;;;34.90;19.15;;;;;;;3.08;96.08;99469.06;5077200;28;20050;-52
2021/12/11 03:01:31;;;;;;;30.15;18.50;;;;;;;3.08;96.21;99469.06;5080762;28;20055;-53
2021/12/11 03:04:17;;;;;;;29.77;17.77;;;;;;;3.12;95.71;99475.94;5076574;28;20053;-54
2021/12/11 03:06:55;;;;;;;30.65;18.75;;;;;;;3.12;95.69;99490.78;5077371;28;20140;-55
2021/12/11 03:09:27;;;;;;;30.95;18.42;;;;;;;3.11;95.95;99495.16;5077559;28;20417;-53
2021/12/11 03:12:00;;;;;;;31.48;18.30;;;;;;;3.14;95.71;99500.28;5078432;28;20075;-51
2021/12/11 03:14:27;;;;;;;28.80;17.42;;;;;;;3.14;96.02;99512.50;5080118;28;20154;-51
2021/12/11 03:16:55;;;;;;;28.80;17.55;;;;;;;3.10;95.52;99516.97;5076852;28;20054;-52
2021/12/11 03:19:29;;;;;;;26.05;16.95;;;;;;;3.00;96.17;99502.44;5079166;28;20063;-51
2021/12/11 03:22:21;;;;;;;23.75;15.85;;;;;;;3.09;95.68;99525.72;5076912;28;20055;-53
2021/12/11 03:24:50;;;;;;;22.88;14.80;;;;;;;3.06;95.95;99528.41;5077146;28;20052;-53
2021/12/11 03:27:17;;;;;;;23.33;15.20;;;;;;;3.05;96.28;99531.94;5073845;28;20060;-52
2021/12/11 03:29:44;;;;;;;23.67;15.68;;;;;;;3.03;96.46;99528.50;5075966;28;20051;-52
2021/12/11 03:32:19;;;;;;;24.52;15.07;;;;;;;3.05;96.61;99542.41;5076663;28;20052;-51
2021/12/11 03:34:51;;;;;;;23.25;14.93;;;;;;;3.05;96.70;99542.41;5083834;28;20046;-54
2021/12/11 03:37:20;;;;;;;25.08;14.60;;;;;;;3.07;96.00;99556.28;5073886;28;20071;-54
2021/12/11 03:39:53;;;;;;;23.58;14.35;;;;;;;3.07;96.65;99558.91;5082552;28;20040;-54
2021/12/11 03:42:26;;;;;;;22.55;14.85;;;;;;;3.08;96.33;99555.38;5078222;28;20041;-56
2021/12/11 03:44:52;;;;;;;22.83;14.55;;;;;;;3.07;96.02;99561.53;5081024;28;20501;-53
2021/12/11 03:47:34;;;;;;;22.98;14.60;;;;;;;3.08;95.69;99576.31;5073480;28;20066;-51
2021/12/11 03:50:11;;;;;;;24.77;16.48;;;;;;;3.05;95.84;99575.53;5077032;28;20543;-53
2021/12/11 03:52:42;;;;;;;24.30;15.13;;;;;;;3.08;95.27;99581.53;5079192;28;20051;-52
2021/12/11 03:55:20;;;;;;;24.90;15.70;;;;;;;3.10;95.47;99582.38;5078092;28;20044;-54
2021/12/11 03:57:46;;;;;;;25.15;16.42;;;;;;;3.10;94.90;99584.97;5076145;28;20049;-53
2021/12/11 04:00:37;;;;;;;26.52;16.25;;;;;;;3.10;95.34;99594.59;5076411;28;20044;-53
2021/12/11 04:03:17;;;;;;;29.10;17.17;;;;;;;3.11;94.86;99594.53;5072102;28;20095;-51
2021/12/11 04:05:55;;;;;;;25.27;17.00;;;;;;;3.12;94.75;99598.88;5077607;28;20109;-53
2021/12/11 04:08:40;;;;;;;27.17;17.10;;;;;;;3.13;94.31;99595.34;5071746;28;20051;-52
2021/12/11 04:11:16;;;;;;;25.80;16.20;;;;;;;3.14;94.40;99599.69;5072229;28;20047;-53
2021/12/11 04:14:10;;;;;;;27.90;17.67;;;;;;;3.15;94.52;99610.97;5071993;28;20058;-53
2021/12/11 04:17:07;;;;;;;27.85;17.13;;;;;;;3.13;94.38;99608.44;5073219;28;20067;-51
2021/12/11 04:19:34;;;;;;;27.33;17.23;;;;;;;3.12;94.47;99619.81;5078350;28;20048;-52
2021/12/11 04:22:07;;;;;;;27.08;17.27;;;;;;;3.12;94.47;99622.41;5076403;28;20062;-53
2021/12/11 04:24:51;;;;;;;26.88;16.50;;;;;;;3.12;93.38;99626.78;5082532;28;20068;-53
2021/12/11 04:27:24;;;;;;;27.10;17.45;;;;;;;3.10;94.51;99634.69;5072399;28;20055;-54
2021/12/11 04:29:51;;;;;;;29.02;17.83;;;;;;;3.14;92.97;99644.16;5076136;28;20052;-55
2021/12/11 04:32:35;;;;;;;27.35;17.55;;;;;;;3.14;93.58;99649.41;5078222;28;20044;-53
2021/12/11 04:35:08;;;;;;;27.63;17.08;;;;;;;3.14;92.89;99648.53;5076764;28;20485;-52
2021/12/11 04:37:42;;;;;;;25.65;17.67;;;;;;;3.14;93.57;99652.00;5075062;28;20048;-53
2021/12/11 04:40:21;;;;;;;26.92;17.67;;;;;;;3.14;93.63;99656.38;5075442;28;20048;-52
2021/12/11 04:42:57;;;;;;;26.73;16.73;;;;;;;3.12;93.55;99656.41;5078290;28;20044;-52
2021/12/11 04:45:34;;;;;;;26.02;16.67;;;;;;;3.18;92.58;99664.06;5077309;28;20448;-53
2021/12/11 04:48:31;;;;;;;27.00;15.88;;;;;;;3.22;91.43;99671.84;5074815;28;20048;-53
2021/12/11 04:54:09;;;;;;;25.83;16.00;;;;;;;3.23;91.02;99674.41;5078781;28;20127;-54
2021/12/11 05:05:48;;;;;;;25.27;16.50;;;;;;;3.19;90.63;99706.78;5076630;28;20399;-55
2021/12/11 05:11:05;;;;;;;28.20;17.35;;;;;;;3.21;92.08;99714.59;5073020;28;20054;-52
2021/12/11 05:13:38;;;;;;;25.98;16.88;;;;;;;3.24;91.61;99717.13;5078862;28;20047;-51
2021/12/11 05:16:09;;;;;;;26.10;16.60;;;;;;;3.24;90.31;99730.22;5075767;28;20722;-52
2021/12/11 05:18:46;;;;;;;27.23;17.55;;;;;;;3.20;91.11;99736.44;5070513;28;20052;-51
2021/12/11 05:21:37;;;;;;;27.15;17.80;;;;;;;3.19;91.08;99740.81;5079607;28;20489;-52
2021/12/11 05:24:06;;;;;;;;;;;;;;;3.21;92.32;99746.00;5074849;28;20550;-53
2021/12/11 05:26:56;;;;;;;27.60;16.70;;;;;;;3.24;92.31;99752.00;5076788;28;19928;-52
2021/12/11 05:29:33;;;;;;;26.02;16.67;;;;;;;3.27;90.75;99757.16;5074797;28;20059;-55
2021/12/11 05:32:01;;;;;;;27.55;17.50;;;;;;;3.29;90.98;99762.38;5070969;28;20044;-53
2021/12/11 05:34:27;;;;;;;25.75;17.08;;;;;;;3.28;90.17;99764.13;5078473;28;20051;-52
2021/12/11 05:36:55;;;;;;;24.77;17.05;;;;;;;3.23;90.35;99780.84;5076838;28;20059;-52
2021/12/11 05:39:32;;;;;;;27.83;18.30;;;;;;;3.20;90.51;99783.53;5071179;28;20052;-53
2021/12/11 05:41:59;;;;;;;26.77;18.27;;;;;;;3.14;90.18;99780.19;5072753;28;20048;-52
2021/12/11 05:44:30;;;;;;;29.38;18.45;;;;;;;3.13;90.25;99780.22;5075942;28;20516;-52
2021/12/11 05:47:05;;;;;;;28.52;19.23;;;;;;;3.08;90.86;99782.97;5069603;28;20197;-53
2021/12/11 05:49:46;;;;;;;31.50;19.33;;;;;;;3.08;90.90;99795.19;5072188;28;20048;-52
2021/12/11 05:52:22;;;;;;;31.27;20.08;;;;;;;3.05;91.27;99797.88;5075569;28;20037;-53
2021/12/11 05:54:50;;;;;;;31.25;20.50;;;;;;;3.03;90.65;99800.53;5086001;28;20043;-55
2021/12/11 05:57:25;;;;;;;32.15;20.67;;;;;;;2.97;91.93;99805.94;5085706;28;20044;-53
2021/12/11 05:59:52;;;;;;;34.17;21.30;;;;;;;3.06;91.71;99810.06;5078435;28;20044;-52
2021/12/11 06:02:28;;;;;;;31.77;20.88;;;;;;;3.08;91.19;99811.72;5089559;28;20125;-54
2021/12/11 06:04:59;;;;;;;34.25;22.35;;;;;;;3.06;91.45;99826.59;5086669;28;20062;-53
2021/12/11 06:07:31;;;;;;;34.90;23.00;;;;;;;3.05;91.93;99826.66;5083376;28;20523;-53
2021/12/11 06:10:12;;;;;;;32.97;21.98;;;;;;;3.01;91.75;99838.94;5081633;28;20075;-53
2021/12/11 06:12:53;;;;;;;;;;;;;;;2.97;92.14;99842.53;5079490;28;20056;-54
2021/12/11 06:15:32;;;;;;;35.92;22.70;;;;;;;2.92;91.74;99844.41;5099643;28;19971;-52
2021/12/11 06:18:18;;;;;;;38.60;23.52;;;;;;;2.93;92.24;99850.50;5075059;28;20126;-53
2021/12/11 06:20:58;;;;;;;35.72;22.20;;;;;;;2.88;92.22;99844.50;5077971;28;20406;-53
2021/12/11 06:23:25;;;;;;;34.90;23.00;;;;;;;2.69;92.34;99836.25;5075864;28;20051;-54
2021/12/11 06:26:21;;;;;;;37.13;23.10;;;;;;;2.75;93.17;99864.88;5078904;28;20391;-52
2021/12/11 06:28:48;;;;;;;38.00;24.02;;;;;;;2.71;93.58;99877.16;5080939;28;20498;-52
2021/12/11 06:31:19;;;;;;;;;;;;;;;2.76;93.18;99887.50;5080593;28;20379;-52
2021/12/11 06:33:51;;;;;;;37.53;23.08;;;;;;;2.74;93.07;99889.28;5080107;28;19924;-51
2021/12/11 06:36:32;;;;;;;39.85;23.95;;;;;;;2.71;93.22;99902.44;5082088;28;20074;-51
2021/12/11 06:39:10;;;;;;;36.08;22.38;;;;;;;2.65;93.38;99910.44;5077679;28;20052;-52
2021/12/11 06:42:01;;;;;;;45.95;26.63;;;;;;;2.54;93.69;99901.94;5081146;28;20136;-54
2021/12/11 06:44:29;;;;;;;40.95;24.52;;;;;;;2.43;93.82;99902.19;5076121;28;20070;-51
2021/12/11 06:47:02;;;;;;;42.60;26.38;;;;;;;2.40;94.71;99916.19;5078877;28;20052;-53
2021/12/11 06:49:41;;;;;;;43.50;26.23;;;;;;;2.40;94.90;99913.56;5075255;28;20049;-52
2021/12/11 06:52:22;;;;;;;45.25;27.55;;;;;;;2.39;95.19;99921.44;5074108;28;20055;-51
2021/12/11 06:54:54;;;;;;;47.80;28.55;;;;;;;2.35;94.97;99927.63;5076426;28;20506;-53
2021/12/11 06:57:24;;;;;;;45.45;27.13;;;;;;;2.35;95.12;99928.50;5078338;28;20628;-53
2021/12/11 06:59:52;;;;;;;47.03;28.92;;;;;;;2.37;95.25;99934.53;5072177;28;20509;-52
2021/12/11 07:02:22;;;;;;;52.33;28.48;;;;;;;2.30;95.51;99938.19;5075733;28;20059;-52
2021/12/11 07:05:04;;;;;;;49.33;28.05;;;;;;;2.28;95.25;99955.63;5074511;28;20417;-52
2021/12/11 07:07:35;;;;;;;51.47;28.77;;;;;;;2.27;95.86;99948.69;5073962;28;20051;-53
2021/12/11 07:10:05;;;;;;;50.08;28.65;;;;;;;2.27;96.29;99959.13;5072851;28;20144;-53
2021/12/11 07:12:32;;;;;;;;;;;;;;;2.30;95.98;99974.75;5074631;28;20051;-53
2021/12/11 07:15:06;;;;;;;47.50;27.25;;;;;;;2.25;96.69;99981.81;5075323;28;19935;-52
2021/12/11 07:17:35;;;;;;;52.97;29.25;;;;;;;2.23;96.49;99986.19;5074076;28;20048;-53
2021/12/11 07:20:15;;;;;;;53.65;29.10;;;;;;;2.23;97.45;99996.66;5071649;28;20051;-55
2021/12/11 07:22:42;;;;;;;54.13;28.88;;;;;;;2.22;97.73;100000.16;5076376;28;20500;-52
2021/12/11 07:25:21;;;;;;;60.05;31.23;;;;;;;2.28;98.51;100013.09;5082000;28;20046;-52
2021/12/11 07:27:50;;;;;;;52.72;30.10;;;;;;;2.32;98.71;100021.75;5073160;28;20134;-51
2021/12/11 07:30:27;;;;;;;59.25;30.75;;;;;;;2.31;97.78;100026.13;5078088;28;20138;-53
2021/12/11 07:33:00;;;;;;;56.85;30.65;;;;;;;2.48;100.00;100033.63;5069101;28;20056;-54
2021/12/11 07:35:36;;;;;;;56.35;30.50;;;;;;;2.45;99.31;100042.38;5076147;28;20044;-52
2021/12/11 07:38:04;;;;;;;59.45;31.70;;;;;;;2.39;98.28;100047.72;5077413;28;20509;-53
2021/12/11 07:40:38;;;;;;;60.40;30.92;;;;;;;2.39;98.87;100059.94;5074856;28;20128;-52
2021/12/11 07:43:06;;;;;;;56.13;31.13;;;;;;;2.39;98.72;100060.78;5076589;28;20059;-52
2021/12/11 07:45:37;;;;;;;54.40;29.65;;;;;;;2.34;97.57;100073.09;5075387;28;20051;-52
2021/12/11 07:48:08;;;;;;;56.03;30.10;;;;;;;2.33;97.83;100070.50;5072794;28;20178;-53
2021/12/11 07:50:34;;;;;;;52.42;29.08;;;;;;;2.29;96.90;100076.69;5075673;28;20051;-51
2021/12/11 07:53:04;;;;;;;61.22;30.67;;;;;;;2.27;96.33;100079.31;5075191;28;20059;-53
2021/12/11 07:55:43;;;;;;;60.50;31.58;;;;;;;2.28;97.12;100088.00;5078211;28;20052;-53
2021/12/11 07:58:11;;;;;;;52.92;29.48;;;;;;;2.28;96.26;100088.00;5075615;28;20851;-53
2021/12/11 08:00:44;;;;;;;56.90;29.80;;;;;;;2.32;95.33;100105.38;5075021;28;20463;-58
2021/12/11 08:03:27;;;;;;;57.83;28.63;;;;;;;2.31;95.47;100112.34;5066920;28;20072;-57
2021/12/11 08:06:03;;;;;;;55.83;28.33;;;;;;;2.29;94.61;100121.09;5079717;28;20093;-52
2021/12/11 08:08:40;;;;;;;60.97;29.73;;;;;;;2.30;94.52;100121.06;5083067;28;20908;-52
2021/12/11 08:11:13;;;;;;;52.47;27.60;;;;;;;2.29;94.27;100124.56;5072914;28;20055;-51
2021/12/11 08:13:59;;;;;;;54.03;28.80;;;;;;;2.28;94.61;100133.28;5074508;28;20044;-53
2021/12/11 08:16:43;;;;;;;53.72;28.75;;;;;;;2.27;94.15;100135.94;5077371;28;20047;-52
2021/12/11 08:19:19;;;;;;;55.13;26.85;;;;;;;2.24;93.10;100144.69;5074531;28;20065;-53
2021/12/11 08:21:55;;;;;;;55.47;26.98;;;;;;;2.25;93.42;100151.63;5069787;28;20064;-56
2021/12/11 08:24:26;;;;;;;56.28;27.70;;;;;;;2.28;94.03;100154.19;5075382;28;20059;-52
2021/12/11 08:27:10;;;;;;;52.72;27.52;;;;;;;2.32;93.95;100168.06;5073823;28;20045;-52
2021/12/11 08:29:52;;;;;;;55.53;27.15;;;;;;;2.37;92.83;100167.09;5073170;28;20044;-53
2021/12/11 08:32:30;;;;;;;56.55;28.33;;;;;;;2.45;91.98;100167.81;5073926;28;20045;-52
2021/12/11 08:35:26;;;;;;;55.42;27.92;;;;;;;2.53;91.56;100169.44;5073069;28;20131;-51
2021/12/11 08:38:11;;;;;;;56.35;27.33;;;;;;;2.62;91.48;100179.75;5074934;28;20056;-52
2021/12/11 08:40:48;;;;;;;55.50;27.63;;;;;;;2.72;91.60;100187.38;5068110;28;22130;-54
2021/12/11 08:43:28;;;;;;;56.35;28.17;;;;;;;2.80;91.04;100189.88;5075077;28;20079;-54
2021/12/11 08:46:09;;;;;;;55.17;27.15;;;;;;;2.89;90.32;100204.50;5072352;28;20139;-53
2021/12/11 08:48:42;;;;;;;51.95;25.90;;;;;;;2.96;90.02;100208.75;5083368;28;20713;-52
2021/12/11 08:51:20;;;;;;;48.22;25.45;;;;;;;2.96;89.25;100206.13;5066437;28;20048;-54
2021/12/11 08:53:54;;;;;;;50.20;26.08;;;;;;;2.88;89.19;100195.78;5066268;28;21566;-51
2021/12/11 08:56:24;;;;;;;50.85;26.85;;;;;;;3.00;88.96;100213.88;5073157;28;20036;-53
2021/12/11 08:58:52;;;;;;;47.90;25.40;;;;;;;3.05;89.08;100216.41;5072383;28;20063;-52
2021/12/11 09:01:50;;;;;;;48.72;25.58;;;;;;;3.11;87.96;100224.16;5068711;28;20445;-51
2021/12/11 09:04:43;;;;;;;49.85;25.45;;;;;;;3.16;87.93;100227.50;5040433;28;20055;-52
2021/12/11 09:07:43;;;;;;;50.92;25.23;;;;;;;3.26;88.11;100236.06;5068405;28;20048;-54
2021/12/11 09:10:32;;;;;;;54.63;28.23;;;;;;;3.32;88.11;100241.16;5070893;28;20052;-51
2021/12/11 09:13:15;;;;;;;55.67;27.05;;;;;;;3.38;88.14;100251.50;5071493;28;20067;-52
2021/12/11 09:15:58;;;;;;;46.13;24.80;;;;;;;3.44;87.62;100256.63;5071017;28;20117;-52
2021/12/11 09:18:32;;;;;;;47.85;25.75;;;;;;;3.51;87.09;100253.00;5073259;28;20052;-53
2021/12/11 09:21:07;;;;;;;42.30;23.10;;;;;;;3.51;84.83;100260.84;5067832;28;20040;-54
2021/12/11 09:23:42;;;;;;;45.17;24.27;;;;;;;3.43;85.58;100270.63;5071737;28;20040;-55
2021/12/11 09:26:30;;;;;;;43.35;23.17;;;;;;;3.43;84.59;100271.47;5070264;28;20494;-54
2021/12/11 09:29:06;;;;;;;42.42;23.98;;;;;;;3.44;85.23;100278.44;5070659;28;20048;-51
2021/12/11 09:31:42;;;;;;;46.67;24.75;;;;;;;3.44;85.91;100291.53;5068618;28;20489;-54
2021/12/11 09:34:18;;;;;;;51.53;26.23;;;;;;;3.43;85.67;100296.78;5072293;28;20051;-53
2021/12/11 09:36:57;;;;;;;46.55;26.63;;;;;;;3.43;86.28;100302.03;5069149;28;20055;-53
2021/12/11 09:39:31;;;;;;;49.90;26.65;;;;;;;3.46;87.36;100300.19;5066076;28;20070;-53
2021/12/11 09:41:58;;;;;;;47.30;26.40;;;;;;;3.49;86.25;100296.66;5074931;28;20040;-52
2021/12/11 09:44:44;;;;;;;48.20;26.83;;;;;;;3.49;86.39;100289.66;5075253;28;20074;-53
2021/12/11 09:47:22;;;;;;;48.17;26.85;;;;;;;3.53;86.86;100300.94;5071135;28;20055;-52
2021/12/11 09:49:58;;;;;;;51.30;26.88;;;;;;;3.58;87.08;100304.34;5065811;28;20040;-52
2021/12/11 09:52:27;;;;;;;50.78;26.33;;;;;;;3.66;87.19;100305.03;5074406;28;20094;-52
2021/12/11 09:55:28;;;;;;;51.45;26.60;;;;;;;3.73;86.39;100314.50;5071165;28;20056;-52
2021/12/11 09:58:04;;;;;;;48.70;26.38;;;;;;;3.80;86.50;100321.31;5073002;28;20051;-55
2021/12/11 10:00:37;;;;;;;49.53;26.50;;;;;;;3.83;85.54;100329.13;5069920;28;20051;-56
2021/12/11 10:03:05;;;;;;;47.67;27.15;;;;;;;3.85;85.68;100327.34;5075391;28;20060;-53
2021/12/11 10:05:49;;;;;;;46.65;26.42;;;;;;;3.93;85.82;100329.81;5073520;28;20079;-53
2021/12/11 10:08:36;;;;;;;49.38;26.55;;;;;;;4.02;86.80;100337.47;5075284;28;20068;-55
2021/12/11 10:11:24;;;;;;;46.28;25.20;;;;;;;4.17;86.15;100336.28;5070350;28;20121;-52
2021/12/11 10:13:51;;;;;;;47.10;25.73;;;;;;;4.27;84.86;100334.31;5067097;28;20055;-55
2021/12/11 10:16:21;;;;;;;44.75;24.05;;;;;;;4.33;82.76;100337.66;5068801;28;20452;-52
2021/12/11 10:18:48;;;;;;;45.85;23.45;;;;;;;4.31;81.54;100339.47;5067031;28;20074;-52
2021/12/11 10:21:23;;;;;;;43.80;24.67;;;;;;;4.32;81.27;100345.56;5073496;28;20581;-53
2021/12/11 10:24:00;;;;;;;42.97;24.15;;;;;;;4.30;81.25;100337.72;5066023;28;20065;-51
2021/12/11 10:26:30;;;;;;;45.75;23.58;;;;;;;4.38;82.30;100345.44;5069976;28;20052;-53
2021/12/11 10:29:12;;;;;;;51.15;24.88;;;;;;;4.38;81.88;100348.94;5073592;28;20060;-54
2021/12/11 10:32:05;;;;;;;43.30;23.50;;;;;;;4.43;80.91;100352.28;5066059;28;22462;-51
2021/12/11 10:34:40;;;;;;;40.70;22.42;;;;;;;4.51;81.60;100360.84;5077213;28;20074;-53
2021/12/11 10:37:35;;;;;;;41.38;22.48;;;;;;;4.54;79.61;100360.78;5070538;28;20060;-54
2021/12/11 10:40:11;;;;;;;43.17;23.17;;;;;;;4.56;79.98;100358.97;5073081;28;20063;-53
2021/12/11 10:42:50;;;;;;;40.63;22.55;;;;;;;4.66;78.86;100364.88;5070986;28;20048;-52
2021/12/11 10:45:26;;;;;;;39.80;21.90;;;;;;;4.78;78.20;100363.72;5066281;28;20063;-54
2021/12/11 10:48:01;;;;;;;39.40;22.20;;;;;;;4.83;79.05;100372.34;5072751;28;20060;-54
2021/12/11 10:50:30;;;;;;;36.58;21.10;;;;;;;4.87;78.54;100372.25;5074894;28;20547;-52
2021/12/11 10:53:07;;;;;;;38.90;21.85;;;;;;;4.89;78.04;100369.56;5078746;28;20044;-51
2021/12/11 10:55:36;;;;;;;39.58;22.20;;;;;;;5.03;77.89;100370.13;5077113;28;20055;-54
2021/12/11 10:58:22;;;;;;;39.53;20.80;;;;;;;5.23;76.28;100375.72;5078095;28;20541;-52
2021/12/11 11:01:32;;;;;;;35.88;20.05;;;;;;;5.42;74.17;100383.97;5075563;28;20168;-53
2021/12/11 11:04:18;;;;;;;38.42;19.33;;;;;;;5.50;72.56;100394.28;5078288;28;20047;-52
2021/12/11 11:06:45;;;;;;;31.35;17.63;;;;;;;5.54;70.79;100393.28;5074077;28;20405;-52
2021/12/11 11:09:24;;;;;;;36.92;18.15;;;;;;;5.50;70.78;100391.66;5074955;28;20050;-55
2021/12/11 11:12:01;;;;;;;35.72;17.85;;;;;;;5.31;70.07;100393.91;5071383;28;20053;-52
2021/12/11 11:14:53;;;;;;;35.83;17.63;;;;;;;5.25;70.37;100399.31;5072762;28;20051;-53
2021/12/11 11:17:34;;;;;;;35.95;17.10;;;;;;;5.20;69.69;100404.66;5065545;28;20083;-52
2021/12/11 11:20:27;;;;;;;37.03;19.60;;;;;;;5.10;70.99;100403.16;5073616;28;20059;-51
2021/12/11 11:23:11;;;;;;;31.75;17.38;;;;;;;5.09;71.08;100406.69;5073305;28;20052;-53
2021/12/11 11:25:45;;;;;;;33.10;16.55;;;;;;;5.19;70.16;100416.09;5079203;28;20535;-52
2021/12/11 11:28:16;;;;;;;35.65;18.40;;;;;;;5.14;70.87;100409.22;5080054;28;20174;-58
2021/12/11 11:31:09;;;;;;;35.20;18.60;;;;;;;5.20;71.14;100422.16;5078728;28;20143;-52
2021/12/11 11:33:37;;;;;;;37.47;18.67;;;;;;;5.25;71.11;100426.41;5082354;28;20051;-53
2021/12/11 11:36:13;;;;;;;39.67;20.67;;;;;;;5.31;71.47;100433.28;5074033;28;20048;-55
2021/12/11 11:38:43;;;;;;;36.58;19.65;;;;;;;5.31;71.28;100430.66;5077521;28;20056;-52
2021/12/11 11:41:21;;;;;;;37.38;18.73;;;;;;;5.31;71.89;100446.41;5074790;28;20048;-54
2021/12/11 11:43:48;;;;;;;38.35;19.23;;;;;;;5.22;71.71;100442.22;5082500;28;20689;-52
2021/12/11 11:46:16;;;;;;;38.47;19.60;;;;;;;5.25;71.41;100447.41;5080249;28;20055;-54
2021/12/11 11:49:08;;;;;;;35.90;17.95;;;;;;;5.34;70.91;100458.63;5080255;28;20435;-53
2021/12/11 11:52:12;;;;;;;34.67;18.27;;;;;;;5.39;70.99;100448.84;5081034;28;20097;-54
2021/12/11 11:54:47;;;;;;;31.63;16.52;;;;;;;5.52;69.51;100453.75;5079428;28;20148;-54
2021/12/11 11:57:20;;;;;;;35.00;18.20;;;;;;;5.69;70.33;100455.94;5077771;28;20092;-54
2021/12/11 11:59:53;;;;;;;32.35;17.23;;;;;;;5.78;69.56;100453.09;5076618;28;20051;-53
2021/12/11 12:02:27;;;;;;;30.90;17.33;;;;;;;5.75;69.21;100442.66;5074335;28;20044;-53
2021/12/11 12:05:14;;;;;;;;;;;;;;;;;;;;;
2021/12/11 12:07:46;;;;;;;34.63;17.05;;;;;;;5.58;69.10;100442.22;5077098;28;20052;-54
2021/12/11 12:10:24;;;;;;;34.85;17.25;;;;;;;5.61;69.60;100457.91;5070533;28;20052;-51
2021/12/11 12:12:56;;;;;;;29.35;16.05;;;;;;;5.58;69.37;100456.22;5071389;28;20146;-53
2021/12/11 12:15:43;;;;;;;28.95;16.33;;;;;;;5.63;70.32;100450.84;5081352;28;20043;-51
2021/12/11 12:18:17;;;;;;;32.70;17.08;;;;;;;5.78;69.38;100460.97;5078214;28;20040;-52
2021/12/11 12:20:50;;;;;;;32.35;17.00;;;;;;;5.83;69.32;100466.06;5077364;28;20044;-53
2021/12/11 12:23:24;;;;;;;29.90;16.88;;;;;;;5.72;69.62;100460.25;5077250;28;20043;-55
2021/12/11 12:25:55;;;;;;;32.00;17.40;;;;;;;5.71;69.52;100461.16;5076176;28;20063;-56
2021/12/11 12:28:26;;;;;;;33.63;17.15;;;;;;;5.70;69.42;100441.03;5076533;28;20040;-52
2021/12/11 12:31:03;;;;;;;29.67;15.50;;;;;;;5.98;67.85;100463.94;5075245;28;20056;-55
2021/12/11 12:33:31;;;;;;;29.23;15.25;;;;;;;6.11;67.27;100468.88;5074949;28;20113;-54